Terminal Aerodrome Forecast
Issued by NWS Sterling, VA

Current Version | Previous Version | Graphics & Text | Print | Product List | Glossary On
Versions: 1 2 3 4 5 6 7 8 9 10 11 12 13 14 15 16 17 18 19 20 21 22 23 24 25 26 27 28 29
000
FTUS41 KLWX 232049 AAA
TAFDCA
TAF AMD
KDCA 232049Z 2321/2424 14011G19KT P6SM BKN060
     FM240100 14006KT P6SM BKN150
     FM241200 10006KT P6SM RA OVC050
     FM241400 11008KT P6SM RA OVC020
     FM242000 09010G20KT 2SM RA OVC008
     FM242300 09009KT 4SM RA OVC010=

USA.gov is the U.S. government's official web portal to all federal, state and local government web resources and services.